createdAt,value
2018-12-16T00:00:39.827Z,1011.9
2018-12-16T00:01:41.862Z,1011.9
2018-12-16T00:02:43.881Z,1011.8
2018-12-16T00:03:45.911Z,1011.8
2018-12-16T00:04:50.362Z,1011.8
2018-12-16T00:05:52.382Z,1011.9
2018-12-16T00:06:54.420Z,1011.8
2018-12-16T00:07:56.429Z,1011.8
2018-12-16T00:08:58.454Z,1011.8
2018-12-16T00:10:00.482Z,1011.8
2018-12-16T00:11:02.509Z,1011.8
2018-12-16T00:12:04.530Z,1011.8
2018-12-16T00:13:06.558Z,1011.8
2018-12-16T00:14:08.874Z,1011.8
2018-12-16T00:15:10.879Z,1011.7
2018-12-16T00:16:12.915Z,1011.7
2018-12-16T00:17:14.930Z,1011.7
2018-12-16T00:18:16.950Z,1011.7
2018-12-16T00:19:19.001Z,1011.7
2018-12-16T00:20:21.026Z,1011.7
2018-12-16T00:21:23.048Z,1011.6
2018-12-16T00:22:30.427Z,1011.6
2018-12-16T00:23:32.460Z,1011.6
2018-12-16T00:24:34.469Z,1011.6
2018-12-16T00:25:36.498Z,1011.5
2018-12-16T00:26:38.514Z,1011.6
2018-12-16T00:27:40.571Z,1011.5
2018-12-16T00:28:42.675Z,1011.5
2018-12-16T00:29:44.700Z,1011.5
2018-12-16T00:30:46.724Z,1011.5
2018-12-16T00:31:48.755Z,1011.5
2018-12-16T00:32:50.779Z,1011.5
2018-12-16T00:33:53.069Z,1011.4
2018-12-16T00:34:55.089Z,1011.5
2018-12-16T00:35:57.100Z,1011.5
2018-12-16T00:36:59.135Z,1011.5
2018-12-16T00:38:01.153Z,1011.3
2018-12-16T00:39:03.448Z,1011.4
2018-12-16T00:40:05.932Z,1011.4
2018-12-16T00:41:08.220Z,1011.3
2018-12-16T00:42:10.238Z,1011.4
2018-12-16T00:43:12.262Z,1011.3
2018-12-16T00:44:14.286Z,1011.3
2018-12-16T00:45:16.300Z,1011.3
2018-12-16T00:46:18.327Z,1011.2
2018-12-16T00:47:20.634Z,1011.2
2018-12-16T00:48:22.643Z,1011.2
2018-12-16T00:49:24.673Z,1011.2
2018-12-16T00:50:26.688Z,1011.2
2018-12-16T00:51:28.710Z,1011.2
2018-12-16T00:52:36.782Z,1011.2
2018-12-16T00:53:38.878Z,1011.1
2018-12-16T00:54:41.176Z,1011.1
2018-12-16T00:55:43.526Z,1011.1
2018-12-16T00:56:45.550Z,1011.1
2018-12-16T00:57:47.556Z,1011
2018-12-16T00:58:49.585Z,1011
2018-12-16T00:59:51.894Z,1011
2018-12-16T01:00:53.907Z,1011
2018-12-16T01:01:55.956Z,1011
2018-12-16T01:02:57.983Z,1011
2018-12-16T01:03:59.995Z,1011
2018-12-16T01:05:02.035Z,1010.9
2018-12-16T01:06:04.126Z,1010.9
2018-12-16T01:07:06.424Z,1010.8
2018-12-16T01:08:08.448Z,1010.8
2018-12-16T01:09:10.476Z,1010.8
2018-12-16T01:10:13.256Z,1010.8
2018-12-16T01:11:15.272Z,1010.8
2018-12-16T01:12:17.303Z,1010.8
2018-12-16T01:13:19.321Z,1010.8
2018-12-16T01:14:21.327Z,1010.8
2018-12-16T01:15:23.643Z,1010.8
2018-12-16T01:16:25.672Z,1010.9
2018-12-16T01:17:27.697Z,1010.8
2018-12-16T01:18:30.100Z,1010.8
2018-12-16T01:19:32.130Z,1010.8
2018-12-16T01:20:34.155Z,1010.9
2018-12-16T01:21:36.176Z,1010.9
2018-12-16T01:22:43.852Z,1010.9
2018-12-16T01:23:45.872Z,1010.9
2018-12-16T01:24:47.897Z,1010.9
2018-12-16T01:25:49.914Z,1011
2018-12-16T01:26:51.946Z,1010.9
2018-12-16T01:27:54.244Z,1010.9
2018-12-16T01:28:56.272Z,1010.9
2018-12-16T01:29:58.299Z,1010.9
2018-12-16T01:31:00.310Z,1010.9
2018-12-16T01:32:02.388Z,1010.8
2018-12-16T01:33:05.000Z,1010.8
2018-12-16T01:34:07.013Z,1010.8
2018-12-16T01:35:09.091Z,1010.9
2018-12-16T01:36:11.116Z,1010.9
2018-12-16T01:37:13.145Z,1010.8
2018-12-16T01:38:15.178Z,1010.8
2018-12-16T01:39:17.198Z,1010.8
2018-12-16T01:40:19.212Z,1010.8
2018-12-16T01:41:21.305Z,1010.8
2018-12-16T01:42:23.334Z,1010.8
2018-12-16T01:43:25.346Z,1010.8
2018-12-16T01:44:27.364Z,1010.8
2018-12-16T01:45:29.671Z,1010.8
2018-12-16T01:46:31.679Z,1010.7
2018-12-16T01:47:33.784Z,1010.7
2018-12-16T01:48:35.809Z,1010.7
2018-12-16T01:49:38.130Z,1010.7
2018-12-16T01:50:40.147Z,1010.6
2018-12-16T01:51:42.164Z,1010.6
2018-12-16T01:52:50.531Z,1010.5
2018-12-16T01:53:52.842Z,1010.6
2018-12-16T01:54:54.856Z,1010.6
2018-12-16T01:55:56.893Z,1010.5
2018-12-16T01:56:58.903Z,1010.5
2018-12-16T01:58:00.925Z,1010.5
2018-12-16T01:59:03.218Z,1010.5
2018-12-16T02:00:05.518Z,1010.5
2018-12-16T02:01:07.533Z,1010.5
2018-12-16T02:02:09.850Z,1010.5
2018-12-16T02:03:11.874Z,1010.5
2018-12-16T02:04:13.884Z,1010.5
2018-12-16T02:05:15.911Z,1010.5
2018-12-16T02:06:18.318Z,1010.5
2018-12-16T02:07:20.330Z,1010.5
2018-12-16T02:08:22.345Z,1010.5
2018-12-16T02:09:24.393Z,1010.5
2018-12-16T02:10:26.404Z,1010.5
2018-12-16T02:11:28.434Z,1010.5
2018-12-16T02:12:30.835Z,1010.5
2018-12-16T02:13:32.848Z,1010.5
2018-12-16T02:14:34.864Z,1010.5
2018-12-16T02:15:36.893Z,1010.4
2018-12-16T02:16:39.189Z,1010.4
2018-12-16T02:17:41.877Z,1010.5
2018-12-16T02:18:43.901Z,1010.4
2018-12-16T02:19:45.905Z,1010.4
2018-12-16T02:20:47.938Z,1010.4
2018-12-16T02:21:50.024Z,1010.5
2018-12-16T02:22:57.420Z,1010.4
2018-12-16T02:23:59.437Z,1010.5
2018-12-16T02:25:01.746Z,1010.4
2018-12-16T02:26:03.761Z,1010.4
2018-12-16T02:27:05.784Z,1010.3
2018-12-16T02:28:07.813Z,1010.4
2018-12-16T02:29:10.099Z,1010.4
2018-12-16T02:30:12.133Z,1010.4
2018-12-16T02:31:14.167Z,1010.3
2018-12-16T02:32:16.188Z,1010.3
2018-12-16T02:33:18.584Z,1010.3
2018-12-16T02:34:20.627Z,1010.3
2018-12-16T02:35:22.944Z,1010.3
2018-12-16T02:36:25.252Z,1010.2
2018-12-16T02:37:27.297Z,1010.3
2018-12-16T02:38:29.312Z,1010.3
2018-12-16T02:39:31.332Z,1010.3
2018-12-16T02:40:33.370Z,1010.3
2018-12-16T02:41:35.776Z,1010.2
2018-12-16T02:42:37.856Z,1010.2
2018-12-16T02:43:39.880Z,1010.2
2018-12-16T02:44:41.919Z,1010.2
2018-12-16T02:45:43.946Z,1010.2
2018-12-16T02:46:45.981Z,1010.3
2018-12-16T02:47:48.008Z,1010.2
2018-12-16T02:48:50.028Z,1010.3
2018-12-16T02:49:52.063Z,1010.2
2018-12-16T02:50:54.078Z,1010.2
2018-12-16T02:51:56.102Z,1010.2
2018-12-16T02:53:04.953Z,1010.2
2018-12-16T02:54:07.014Z,1010.1
2018-12-16T02:55:09.041Z,1010.1
2018-12-16T02:56:11.793Z,1010.1
2018-12-16T02:57:13.831Z,1010.1
2018-12-16T02:58:16.148Z,1010.1
2018-12-16T02:59:18.197Z,1010.1
2018-12-16T03:00:20.227Z,1010
2018-12-16T03:01:22.649Z,1010
2018-12-16T03:02:24.684Z,1010
2018-12-16T03:03:26.695Z,1010
2018-12-16T03:04:29.374Z,1009.9
2018-12-16T03:05:31.418Z,1009.9
2018-12-16T03:06:33.449Z,1009.9
2018-12-16T03:07:35.770Z,1009.9
2018-12-16T03:08:37.799Z,1009.9
2018-12-16T03:09:40.108Z,1009.9
2018-12-16T03:10:42.530Z,1009.9
2018-12-16T03:11:44.540Z,1009.8
2018-12-16T03:12:46.583Z,1009.8
2018-12-16T03:13:48.913Z,1009.7
2018-12-16T03:14:51.228Z,1009.7
2018-12-16T03:15:53.254Z,1009.7
2018-12-16T03:16:55.294Z,1009.7
2018-12-16T03:17:57.304Z,1009.6
2018-12-16T03:18:59.610Z,1009.6
2018-12-16T03:20:01.649Z,1009.5
2018-12-16T03:21:04.057Z,1009.5
2018-12-16T03:22:06.089Z,1009.5
2018-12-16T03:23:12.751Z,1009.5
2018-12-16T03:24:15.065Z,1009.4
2018-12-16T03:25:17.369Z,1009.5
2018-12-16T03:26:19.408Z,1009.4
2018-12-16T03:27:21.417Z,1009.4
2018-12-16T03:28:23.762Z,1009.3
2018-12-16T03:29:25.832Z,1009.3
2018-12-16T03:30:27.920Z,1009.3
2018-12-16T03:31:29.954Z,1009.2
2018-12-16T03:32:32.282Z,1009.2
2018-12-16T03:33:34.327Z,1009.3
2018-12-16T03:34:36.337Z,1009.2
2018-12-16T03:35:38.763Z,1009.2
2018-12-16T03:36:41.068Z,1009.1
2018-12-16T03:37:43.088Z,1009.2
2018-12-16T03:38:45.102Z,1009.1
2018-12-16T03:39:47.137Z,1009.1
2018-12-16T03:40:49.433Z,1009.1
2018-12-16T03:41:51.463Z,1009.2
2018-12-16T03:42:53.488Z,1009.1
2018-12-16T03:43:56.079Z,1009.1
2018-12-16T03:44:58.115Z,1009.1
2018-12-16T03:46:00.142Z,1009.1
2018-12-16T03:47:02.457Z,1009
2018-12-16T03:48:04.482Z,1009
2018-12-16T03:49:06.516Z,1009.1
2018-12-16T03:50:08.816Z,1009.1
2018-12-16T03:51:10.858Z,1009
2018-12-16T03:52:12.883Z,1009
2018-12-16T03:53:20.445Z,1009
2018-12-16T03:54:22.540Z,1009
2018-12-16T03:55:24.570Z,1009
2018-12-16T03:56:26.867Z,1009
2018-12-16T03:57:29.180Z,1008.9
2018-12-16T03:58:31.501Z,1008.9
2018-12-16T03:59:33.514Z,1008.9
2018-12-16T04:00:35.861Z,1008.9
2018-12-16T04:01:38.163Z,1009
2018-12-16T04:02:40.466Z,1008.9
2018-12-16T04:03:43.142Z,1008.9
2018-12-16T04:04:45.567Z,1008.9
2018-12-16T04:05:47.586Z,1008.9
2018-12-16T04:06:50.580Z,1008.8
2018-12-16T04:07:52.637Z,1008.8
2018-12-16T04:08:54.652Z,1008.8
2018-12-16T04:09:56.684Z,1008.8
2018-12-16T04:10:58.713Z,1008.7
2018-12-16T04:12:00.737Z,1008.8
2018-12-16T04:13:03.048Z,1008.6
2018-12-16T04:14:05.075Z,1008.7
2018-12-16T04:15:07.498Z,1008.7
2018-12-16T04:16:09.512Z,1008.7
2018-12-16T04:17:11.545Z,1008.5
2018-12-16T04:18:13.552Z,1008.6
2018-12-16T04:19:15.860Z,1008.5
2018-12-16T04:20:18.218Z,1008.5
2018-12-16T04:21:20.546Z,1008.5
2018-12-16T04:22:22.561Z,1008.5
2018-12-16T04:23:27.836Z,1008.5
2018-12-16T04:24:29.872Z,1008.5
2018-12-16T04:25:31.923Z,1008.4
2018-12-16T04:26:33.934Z,1008.5
2018-12-16T04:27:36.341Z,1008.4
2018-12-16T04:28:38.652Z,1008.4
2018-12-16T04:29:40.663Z,1008.4
2018-12-16T04:30:42.694Z,1008.3
2018-12-16T04:31:45.132Z,1008.3
2018-12-16T04:32:47.157Z,1008.3
2018-12-16T04:33:49.207Z,1008.3
2018-12-16T04:34:51.229Z,1008.3
2018-12-16T04:35:53.260Z,1008.3
2018-12-16T04:36:55.271Z,1008.3
2018-12-16T04:37:57.300Z,1008.3
2018-12-16T04:38:59.364Z,1008.2
2018-12-16T04:40:01.678Z,1008.2
2018-12-16T04:41:03.711Z,1008.2
2018-12-16T04:42:05.998Z,1008.2
2018-12-16T04:43:08.421Z,1008.2
2018-12-16T04:44:10.444Z,1008.2
2018-12-16T04:45:12.467Z,1008.1
2018-12-16T04:46:14.763Z,1008.1
2018-12-16T04:47:17.078Z,1008.1
2018-12-16T04:48:19.487Z,1008.1
2018-12-16T04:49:21.506Z,1008
2018-12-16T04:50:23.928Z,1008.1
2018-12-16T04:51:26.223Z,1008
2018-12-16T04:52:28.243Z,1008
2018-12-16T04:53:37.165Z,1008.1
2018-12-16T04:54:39.272Z,1008
2018-12-16T04:55:41.299Z,1008
2018-12-16T04:56:43.326Z,1008
2018-12-16T04:57:45.345Z,1007.9
2018-12-16T04:58:47.402Z,1007.9
2018-12-16T04:59:49.729Z,1008
2018-12-16T05:00:52.031Z,1008
2018-12-16T05:01:54.615Z,1007.9
2018-12-16T05:02:56.650Z,1007.9
2018-12-16T05:03:58.949Z,1007.8
2018-12-16T05:05:01.254Z,1007.9
2018-12-16T05:06:03.962Z,1007.9
2018-12-16T05:07:05.982Z,1007.9
2018-12-16T05:08:08.306Z,1007.9
2018-12-16T05:09:10.370Z,1007.9
2018-12-16T05:10:12.422Z,1007.8
2018-12-16T05:11:14.439Z,1007.8
2018-12-16T05:12:16.854Z,1007.8
2018-12-16T05:13:18.911Z,1007.7
2018-12-16T05:14:21.495Z,1007.7
2018-12-16T05:15:23.529Z,1007.7
2018-12-16T05:16:25.554Z,1007.7
2018-12-16T05:17:27.968Z,1007.7
2018-12-16T05:18:30.278Z,1007.7
2018-12-16T05:19:32.305Z,1007.7
2018-12-16T05:20:34.317Z,1007.7
2018-12-16T05:21:36.623Z,1007.6
2018-12-16T05:22:38.647Z,1007.6
2018-12-16T05:23:42.390Z,1007.5
2018-12-16T05:24:44.418Z,1007.6
2018-12-16T05:25:46.435Z,1007.6
2018-12-16T05:26:48.457Z,1007.6
2018-12-16T05:27:50.479Z,1007.5
2018-12-16T05:28:52.508Z,1007.6
2018-12-16T05:29:54.525Z,1007.5
2018-12-16T05:30:56.555Z,1007.5
2018-12-16T05:31:58.590Z,1007.5
2018-12-16T05:33:00.604Z,1007.5
2018-12-16T05:34:02.627Z,1007.5
2018-12-16T05:35:05.322Z,1007.5
2018-12-16T05:36:07.339Z,1007.4
2018-12-16T05:37:09.753Z,1007.4
2018-12-16T05:38:12.118Z,1007.4
2018-12-16T05:39:14.147Z,1007.4
2018-12-16T05:40:16.434Z,1007.4
2018-12-16T05:41:18.743Z,1007.4
2018-12-16T05:42:20.773Z,1007.4
2018-12-16T05:43:22.797Z,1007.4
2018-12-16T05:44:24.805Z,1007.4
2018-12-16T05:45:27.128Z,1007.3
2018-12-16T05:46:29.208Z,1007.4
2018-12-16T05:47:31.231Z,1007.4
2018-12-16T05:48:33.269Z,1007.3
2018-12-16T05:49:35.294Z,1007.3
2018-12-16T05:50:37.317Z,1007.3
2018-12-16T05:51:39.341Z,1007.3
2018-12-16T05:52:41.368Z,1007.3
2018-12-16T05:53:48.994Z,1007.2
2018-12-16T05:54:51.018Z,1007.2
2018-12-16T05:55:53.050Z,1007.1
2018-12-16T05:56:55.054Z,1007.2
2018-12-16T05:57:57.082Z,1007.1
2018-12-16T05:58:59.387Z,1007.1
2018-12-16T06:00:01.407Z,1007.1
2018-12-16T06:01:03.426Z,1007.1
2018-12-16T06:02:05.841Z,1007.1
2018-12-16T06:03:08.146Z,1007.1
2018-12-16T06:04:10.168Z,1007.2
2018-12-16T06:05:12.184Z,1007.1
2018-12-16T06:06:14.202Z,1007.1
2018-12-16T06:07:16.781Z,1007.1
2018-12-16T06:08:19.101Z,1007.1
2018-12-16T06:09:21.120Z,1007.1
2018-12-16T06:10:23.141Z,1007.1
2018-12-16T06:11:25.163Z,1007.1
2018-12-16T06:12:27.173Z,1007
2018-12-16T06:13:29.204Z,1007.1
2018-12-16T06:14:31.220Z,1007.1
2018-12-16T06:15:33.275Z,1007
2018-12-16T06:16:36.024Z,1007.1
2018-12-16T06:17:38.049Z,1007.1
2018-12-16T06:18:40.457Z,1007
2018-12-16T06:19:42.758Z,1007
2018-12-16T06:20:44.768Z,1007
2018-12-16T06:21:47.084Z,1007.1
2018-12-16T06:22:49.095Z,1007
2018-12-16T06:23:56.005Z,1007.1
2018-12-16T06:24:58.029Z,1007.1
2018-12-16T06:26:00.059Z,1007.1
2018-12-16T06:27:02.078Z,1007.1
2018-12-16T06:28:04.493Z,1007.2
2018-12-16T06:29:06.795Z,1007.1
2018-12-16T06:30:08.812Z,1007.2
2018-12-16T06:31:10.841Z,1007.1
2018-12-16T06:32:12.855Z,1007.1
2018-12-16T06:33:14.865Z,1007.1
2018-12-16T06:34:16.884Z,1007.2
2018-12-16T06:35:18.906Z,1007.2
2018-12-16T06:36:20.937Z,1007.2
2018-12-16T06:37:22.966Z,1007.1
2018-12-16T06:38:24.991Z,1007.1
2018-12-16T06:39:27.006Z,1007.2
2018-12-16T06:40:29.030Z,1007.2
2018-12-16T06:41:31.337Z,1007.1
2018-12-16T06:42:33.398Z,1007.1
2018-12-16T06:43:35.423Z,1007.2
2018-12-16T06:44:37.452Z,1007.1
2018-12-16T06:45:39.459Z,1007.2
2018-12-16T06:46:41.574Z,1007.2
2018-12-16T06:47:43.599Z,1007.2
2018-12-16T06:48:46.007Z,1007.1
2018-12-16T06:49:48.025Z,1007.1
2018-12-16T06:50:50.052Z,1007.1
2018-12-16T06:51:52.065Z,1007
2018-12-16T06:52:54.077Z,1007.1
2018-12-16T06:54:02.920Z,1007
2018-12-16T06:55:05.013Z,1007
2018-12-16T06:56:07.342Z,1007
2018-12-16T06:57:09.672Z,1006.9
2018-12-16T06:58:11.700Z,1006.9
2018-12-16T06:59:13.733Z,1006.9
2018-12-16T07:00:15.746Z,1006.9
2018-12-16T07:01:18.153Z,1007
2018-12-16T07:02:20.172Z,1006.9
2018-12-16T07:03:22.190Z,1006.9
2018-12-16T07:04:24.225Z,1007
2018-12-16T07:05:26.251Z,1006.9
2018-12-16T07:06:28.260Z,1006.8
2018-12-16T07:07:30.271Z,1006.9
2018-12-16T07:08:32.296Z,1006.9
2018-12-16T07:09:34.316Z,1006.9
2018-12-16T07:10:36.364Z,1006.9
2018-12-16T07:11:38.414Z,1006.9
2018-12-16T07:12:40.479Z,1007
2018-12-16T07:13:42.841Z,1006.9
2018-12-16T07:14:44.895Z,1006.9
2018-12-16T07:15:47.018Z,1006.8
2018-12-16T07:16:49.396Z,1006.9
2018-12-16T07:17:51.437Z,1006.9
2018-12-16T07:18:53.761Z,1006.9
2018-12-16T07:19:55.839Z,1006.8
2018-12-16T07:20:58.176Z,1006.8
2018-12-16T07:22:00.240Z,1006.9
2018-12-16T07:23:02.291Z,1006.8
2018-12-16T07:24:09.618Z,1006.7
2018-12-16T07:25:11.681Z,1006.7
2018-12-16T07:26:13.727Z,1006.8
2018-12-16T07:27:15.760Z,1006.8
2018-12-16T07:28:17.886Z,1006.9
2018-12-16T07:29:19.977Z,1006.8
2018-12-16T07:30:22.439Z,1006.7
2018-12-16T07:31:24.512Z,1006.8
2018-12-16T07:32:26.960Z,1006.7
2018-12-16T07:33:29.063Z,1006.7
2018-12-16T07:34:31.077Z,1006.9
2018-12-16T07:35:33.178Z,1006.8
2018-12-16T07:36:35.246Z,1006.9
2018-12-16T07:37:37.595Z,1006.8
2018-12-16T07:38:39.819Z,1006.9
2018-12-16T07:39:41.916Z,1006.9
2018-12-16T07:40:43.981Z,1006.9
2018-12-16T07:41:46.646Z,1006.9
2018-12-16T07:42:49.311Z,1006.9
2018-12-16T07:43:51.351Z,1006.9
2018-12-16T07:44:53.461Z,1006.9
2018-12-16T07:45:56.113Z,1006.9
2018-12-16T07:46:58.816Z,1006.9
2018-12-16T07:48:00.843Z,1006.9
2018-12-16T07:49:03.040Z,1006.8
2018-12-16T07:50:05.713Z,1006.9
2018-12-16T07:51:08.188Z,1006.9
2018-12-16T07:52:10.298Z,1006.9
2018-12-16T07:53:12.366Z,1006.9
2018-12-16T07:54:16.507Z,1006.8
2018-12-16T07:55:18.567Z,1006.8
2018-12-16T07:56:20.645Z,1006.8
2018-12-16T07:57:22.983Z,1006.8
2018-12-16T07:58:25.335Z,1006.8
2018-12-16T07:59:27.671Z,1006.8
2018-12-16T08:00:29.746Z,1006.8
2018-12-16T08:01:32.141Z,1006.8
2018-12-16T08:02:34.220Z,1006.9
2018-12-16T08:03:36.568Z,1006.8
2018-12-16T08:04:38.949Z,1006.8
2018-12-16T08:05:41.006Z,1006.8
2018-12-16T08:06:43.065Z,1006.8
2018-12-16T08:07:45.176Z,1006.8
2018-12-16T08:08:47.861Z,1006.8
2018-12-16T08:09:49.872Z,1006.8
2018-12-16T08:10:51.890Z,1006.8
2018-12-16T08:11:54.190Z,1006.8
2018-12-16T08:12:56.502Z,1006.8
2018-12-16T08:13:58.517Z,1006.8
2018-12-16T08:15:00.531Z,1006.8
2018-12-16T08:16:02.594Z,1006.9
2018-12-16T08:17:04.881Z,1006.9
2018-12-16T08:18:07.187Z,1006.9
2018-12-16T08:19:09.215Z,1006.9
2018-12-16T08:20:11.232Z,1007
2018-12-16T08:21:13.524Z,1006.8
2018-12-16T08:22:15.634Z,1006.9
2018-12-16T08:23:17.654Z,1006.9
2018-12-16T08:24:23.544Z,1006.9
2018-12-16T08:25:25.590Z,1006.8
2018-12-16T08:26:27.596Z,1006.8
2018-12-16T08:27:29.617Z,1006.8
2018-12-16T08:28:31.639Z,1006.9
2018-12-16T08:29:33.678Z,1006.9
2018-12-16T08:30:35.687Z,1006.9
2018-12-16T08:31:37.786Z,1006.9
2018-12-16T08:32:39.822Z,1006.9
2018-12-16T08:33:42.115Z,1006.8
2018-12-16T08:34:44.162Z,1006.8
2018-12-16T08:35:46.183Z,1006.8
2018-12-16T08:36:48.484Z,1006.9
2018-12-16T08:37:50.499Z,1006.8
2018-12-16T08:38:52.801Z,1006.8
2018-12-16T08:39:54.830Z,1006.8
2018-12-16T08:40:56.854Z,1006.7
2018-12-16T08:41:58.876Z,1006.8
2018-12-16T08:43:01.205Z,1006.8
2018-12-16T08:44:03.230Z,1006.7
2018-12-16T08:45:05.246Z,1006.8
2018-12-16T08:46:07.273Z,1006.7
2018-12-16T08:47:09.289Z,1006.7
2018-12-16T08:48:11.313Z,1006.7
2018-12-16T08:49:13.330Z,1006.7
2018-12-16T08:50:16.895Z,1006.7
2018-12-16T08:51:18.919Z,1006.6
2018-12-16T08:52:20.944Z,1006.7
2018-12-16T08:53:22.960Z,1006.6
2018-12-16T08:54:30.436Z,1006.6
2018-12-16T08:55:32.865Z,1006.5
2018-12-16T08:56:34.881Z,1006.6
2018-12-16T08:57:36.892Z,1006.7
2018-12-16T08:58:38.924Z,1006.6
2018-12-16T08:59:41.313Z,1006.6
2018-12-16T09:00:43.340Z,1006.6
2018-12-16T09:01:45.752Z,1006.6
2018-12-16T09:02:48.166Z,1006.6
2018-12-16T09:03:50.178Z,1006.6
2018-12-16T09:04:52.204Z,1006.6
2018-12-16T09:05:54.304Z,1006.6
2018-12-16T09:06:56.321Z,1006.6
2018-12-16T09:07:58.368Z,1006.5
2018-12-16T09:09:00.389Z,1006.5
2018-12-16T09:10:02.687Z,1006.5
2018-12-16T09:11:04.987Z,1006.5
2018-12-16T09:12:07.030Z,1006.6
2018-12-16T09:13:09.040Z,1006.6
2018-12-16T09:14:11.066Z,1006.4
2018-12-16T09:15:13.089Z,1006.5
2018-12-16T09:16:15.480Z,1006.5
2018-12-16T09:17:17.589Z,1006.4
2018-12-16T09:18:19.624Z,1006.5
2018-12-16T09:19:21.638Z,1006.3
2018-12-16T09:20:23.665Z,1006.4
2018-12-16T09:21:25.686Z,1006.4
2018-12-16T09:22:27.763Z,1006.3
2018-12-16T09:23:29.805Z,1006.4
2018-12-16T09:24:37.668Z,1006.4
2018-12-16T09:25:39.692Z,1006.4
2018-12-16T09:26:41.756Z,1006.3
2018-12-16T09:27:43.778Z,1006.4
2018-12-16T09:28:45.811Z,1006.3
2018-12-16T09:29:47.831Z,1006.3
2018-12-16T09:30:49.848Z,1006.3
2018-12-16T09:31:59.694Z,1006.3
2018-12-16T09:33:01.711Z,1006.3
2018-12-16T09:34:03.734Z,1006.3
2018-12-16T09:35:05.758Z,1006.3
2018-12-16T09:36:07.786Z,1006.3
2018-12-16T09:37:09.794Z,1006.3
2018-12-16T09:38:11.821Z,1006.3
2018-12-16T09:39:13.837Z,1006.3
2018-12-16T09:40:15.858Z,1006.3
2018-12-16T09:41:17.897Z,1006.2
2018-12-16T09:42:19.912Z,1006.3
2018-12-16T09:43:21.935Z,1006.2
2018-12-16T09:44:23.955Z,1006.2
2018-12-16T09:45:26.010Z,1006.1
2018-12-16T09:46:28.026Z,1006
2018-12-16T09:47:31.641Z,1006
2018-12-16T09:48:33.697Z,1006.1
2018-12-16T09:49:35.734Z,1006
2018-12-16T09:50:38.044Z,1006
2018-12-16T09:51:40.065Z,1006
2018-12-16T09:52:42.084Z,1006
2018-12-16T09:53:44.106Z,1005.9
2018-12-16T09:54:46.127Z,1005.9
2018-12-16T09:55:48.140Z,1005.9
2018-12-16T09:56:50.255Z,1005.9
2018-12-16T09:57:52.275Z,1005.9
2018-12-16T09:58:54.288Z,1005.8
2018-12-16T09:59:56.309Z,1005.9
2018-12-16T10:00:58.336Z,1005.8
2018-12-16T10:02:00.353Z,1005.8
2018-12-16T10:03:02.686Z,1005.7
2018-12-16T10:04:06.448Z,1005.7
2018-12-16T10:05:08.460Z,1005.8
2018-12-16T10:06:10.494Z,1005.8
2018-12-16T10:07:12.526Z,1005.8
2018-12-16T10:08:14.549Z,1005.7
2018-12-16T10:09:16.589Z,1005.8
2018-12-16T10:10:20.707Z,1005.7
2018-12-16T10:11:23.791Z,1005.7
2018-12-16T10:12:27.243Z,1005.7
2018-12-16T10:13:29.429Z,1005.6
2018-12-16T10:14:32.095Z,1005.6
2018-12-16T10:15:34.336Z,1005.6
2018-12-16T10:16:36.736Z,1005.6
2018-12-16T10:17:38.909Z,1005.6
2018-12-16T10:18:41.536Z,1005.4
2018-12-16T10:19:43.697Z,1005.5
2018-12-16T10:20:46.558Z,1005.5
2018-12-16T10:21:49.986Z,1005.5
2018-12-16T10:22:52.926Z,1005.4
2018-12-16T10:23:55.671Z,1005.5
2018-12-16T10:24:58.088Z,1005.5
2018-12-16T10:26:00.707Z,1005.5
2018-12-16T10:27:03.205Z,1005.5
2018-12-16T10:28:05.327Z,1005.5
2018-12-16T10:29:07.490Z,1005.5
2018-12-16T10:30:09.756Z,1005.5
2018-12-16T10:31:12.032Z,1005.4
2018-12-16T10:32:14.339Z,1005.4
2018-12-16T10:33:16.843Z,1005.5
2018-12-16T10:34:19.938Z,1005.4
2018-12-16T10:35:22.528Z,1005.4
2018-12-16T10:36:25.269Z,1005.3
2018-12-16T10:37:28.132Z,1005.5
2018-12-16T10:38:31.658Z,1005.4
2018-12-16T10:39:34.961Z,1005.3
2018-12-16T10:40:37.488Z,1005.3
2018-12-16T10:41:40.913Z,1005.3
2018-12-16T10:42:43.516Z,1005.2
2018-12-16T10:43:46.219Z,1005.3
2018-12-16T10:44:48.395Z,1005.3
2018-12-16T10:45:51.820Z,1005.4
2018-12-16T10:46:55.598Z,1005.2
2018-12-16T10:48:05.206Z,1005.3
2018-12-16T10:49:16.560Z,1005.3
2018-12-16T10:50:29.919Z,1005.3
2018-12-16T10:51:32.452Z,1005.3
2018-12-16T10:52:46.578Z,1005.3
2018-12-16T10:53:56.262Z,1005.3
2018-12-16T10:55:05.457Z,1005.2
2018-12-16T10:56:11.847Z,1005.3
2018-12-16T10:57:15.108Z,1005.2
2018-12-16T10:58:17.765Z,1005.2
2018-12-16T10:59:19.886Z,1005.2
2018-12-16T11:00:22.162Z,1005.2
2018-12-16T11:01:25.657Z,1005.3
2018-12-16T11:02:28.157Z,1005.2
2018-12-16T11:03:30.578Z,1005.2
2018-12-16T11:04:33.201Z,1005.2
2018-12-16T11:05:35.980Z,1005.2
2018-12-16T11:06:39.798Z,1005.1
2018-12-16T11:07:43.174Z,1005.1
2018-12-16T11:08:45.409Z,1005.1
2018-12-16T11:09:48.401Z,1005.1
2018-12-16T11:10:51.512Z,1005.1
2018-12-16T11:11:53.895Z,1005.1
2018-12-16T11:12:56.242Z,1005
2018-12-16T11:13:58.909Z,1005.1
2018-12-16T11:15:00.976Z,1005
2018-12-16T11:16:03.450Z,1005
2018-12-16T11:17:05.672Z,1005
2018-12-16T11:18:07.913Z,1005
2018-12-16T11:19:10.036Z,1005
2018-12-16T11:20:13.247Z,1004.9
2018-12-16T11:21:15.437Z,1004.9
2018-12-16T11:22:18.005Z,1004.9
2018-12-16T11:23:20.770Z,1004.9
2018-12-16T11:24:23.859Z,1004.9
2018-12-16T11:25:26.396Z,1004.9
2018-12-16T11:26:30.376Z,1004.9
2018-12-16T11:27:33.308Z,1004.8
2018-12-16T11:28:35.692Z,1004.8
2018-12-16T11:29:38.434Z,1004.8
2018-12-16T11:30:41.194Z,1004.8
2018-12-16T11:31:43.916Z,1004.7
2018-12-16T11:32:46.764Z,1004.8
2018-12-16T11:33:49.861Z,1004.7
2018-12-16T11:34:53.824Z,1004.7
2018-12-16T11:35:57.524Z,1004.6
2018-12-16T11:37:00.795Z,1004.6
2018-12-16T11:38:03.546Z,1004.6
2018-12-16T11:39:06.054Z,1004.6
2018-12-16T11:40:09.746Z,1004.5
2018-12-16T11:41:13.035Z,1004.5
2018-12-16T11:42:16.993Z,1004.4
2018-12-16T11:43:19.660Z,1004.5
2018-12-16T11:44:22.508Z,1004.4
2018-12-16T11:45:25.367Z,1004.4
2018-12-16T11:46:28.035Z,1004.4
2018-12-16T11:47:30.431Z,1004.4
2018-12-16T11:48:33.571Z,1004.4
2018-12-16T11:49:36.982Z,1004.4
2018-12-16T11:50:40.493Z,1004.4
2018-12-16T11:51:42.988Z,1004.4
2018-12-16T11:52:45.437Z,1004.3
2018-12-16T11:53:48.906Z,1004.3
2018-12-16T11:54:53.766Z,1004.3
2018-12-16T11:55:56.535Z,1004.3
2018-12-16T11:56:59.716Z,1004.3
2018-12-16T11:58:02.279Z,1004.3
2018-12-16T11:59:05.163Z,1004.2
2018-12-16T12:00:07.994Z,1004.3
2018-12-16T12:01:10.869Z,1004.2
2018-12-16T12:02:13.350Z,1004.3
2018-12-16T12:03:17.769Z,1004.2
2018-12-16T12:04:22.437Z,1004.2
2018-12-16T12:05:27.231Z,1004.2
2018-12-16T12:06:29.425Z,1004.2
2018-12-16T12:07:31.527Z,1004.2
2018-12-16T12:08:33.738Z,1004.2
2018-12-16T12:09:35.921Z,1004.2
2018-12-16T12:10:38.156Z,1004.1
2018-12-16T12:11:40.598Z,1004.1
2018-12-16T12:12:43.625Z,1004.1
2018-12-16T12:13:47.592Z,1004.1
2018-12-16T12:14:50.147Z,1004.1
2018-12-16T12:15:52.466Z,1004.1
2018-12-16T12:16:54.996Z,1004.1
2018-12-16T12:17:57.508Z,1004
2018-12-16T12:18:59.954Z,1004.1
2018-12-16T12:20:02.923Z,1004.1
2018-12-16T12:21:05.123Z,1004.1
2018-12-16T12:22:07.263Z,1004
2018-12-16T12:23:09.852Z,1004
2018-12-16T12:24:12.416Z,1004.1
2018-12-16T12:25:20.250Z,1004
2018-12-16T12:26:22.429Z,1004
2018-12-16T12:27:24.706Z,1004
2018-12-16T12:28:26.790Z,1004
2018-12-16T12:29:29.089Z,1003.9
2018-12-16T12:30:31.522Z,1004
2018-12-16T12:31:33.785Z,1004
2018-12-16T12:32:35.894Z,1004
2018-12-16T12:33:38.141Z,1004
2018-12-16T12:34:41.239Z,1003.9
2018-12-16T12:35:43.528Z,1003.9
2018-12-16T12:36:46.527Z,1004
2018-12-16T12:37:49.231Z,1003.9
2018-12-16T12:38:51.978Z,1003.9
2018-12-16T12:39:55.193Z,1003.8
2018-12-16T12:40:57.717Z,1003.8
2018-12-16T12:42:00.564Z,1003.8
2018-12-16T12:43:03.298Z,1003.8
2018-12-16T12:44:05.937Z,1003.8
2018-12-16T12:45:08.276Z,1003.8
2018-12-16T12:46:10.627Z,1003.8
2018-12-16T12:47:13.582Z,1003.8
2018-12-16T12:48:16.619Z,1003.7
2018-12-16T12:49:18.812Z,1003.8
2018-12-16T12:50:21.815Z,1003.7
2018-12-16T12:51:24.454Z,1003.7
2018-12-16T12:52:26.885Z,1003.8
2018-12-16T12:53:30.150Z,1003.8
2018-12-16T12:54:33.376Z,1003.7
2018-12-16T12:55:36.022Z,1003.7
2018-12-16T12:56:38.335Z,1003.7
2018-12-16T12:57:41.286Z,1003.7
2018-12-16T12:58:43.743Z,1003.7
2018-12-16T12:59:47.610Z,1003.6
2018-12-16T13:00:50.822Z,1003.6
2018-12-16T13:01:53.461Z,1003.6
2018-12-16T13:02:56.068Z,1003.7
2018-12-16T13:03:58.388Z,1003.6